Terminal Aerodrome Forecast
Issued by NWS Memphis, TN

Home | Current Version | Previous Version | Text Only | Print | Product List | Glossary On
Versions: 1 2 3 4 5 6 7 8 9 10 11 12 13 14 15 16 17 18
000
FTUS44 KMEG 182320
TAFJBR
TAF
KJBR 182320Z 1900/1924 07006KT P6SM OVC027
     FM190600 05005KT 4SM BR OVC007
     FM190900 05004KT 2SM BR OVC005
     FM191500 05008KT 4SM BR OVC007
     FM191800 05006KT P6SM OVC015=

USA.gov is the U.S. government's official web portal to all federal, state and local government web resources and services.